createdAt,value
2022-08-24T00:00:37.612Z,89.60
2022-08-24T00:03:04.691Z,89.80
2022-08-24T00:05:31.690Z,90.00
2022-08-24T00:07:58.627Z,90.10
2022-08-24T00:10:27.089Z,90.50
2022-08-24T00:12:53.989Z,90.20
2022-08-24T00:15:21.114Z,90.40
2022-08-24T00:17:48.117Z,90.60
2022-08-24T00:20:15.079Z,90.50
2022-08-24T00:22:42.499Z,90.50
2022-08-24T00:25:11.461Z,90.30
2022-08-24T00:27:41.927Z,90.20
2022-08-24T00:30:12.511Z,90.00
2022-08-24T00:32:39.509Z,89.80
2022-08-24T00:35:08.155Z,89.50
2022-08-24T00:37:35.385Z,89.50
2022-08-24T00:40:02.823Z,89.50
2022-08-24T00:42:29.770Z,89.50
2022-08-24T00:44:58.365Z,89.50
2022-08-24T00:47:31.677Z,89.50
2022-08-24T00:50:01.320Z,89.60
2022-08-24T00:52:33.344Z,90.00
2022-08-24T00:55:05.974Z,90.20
2022-08-24T00:57:38.694Z,90.40
2022-08-24T01:00:11.309Z,90.50
2022-08-24T01:02:44.278Z,90.50
2022-08-24T01:05:12.709Z,90.50
2022-08-24T01:07:40.792Z,90.60
2022-08-24T01:10:11.052Z,90.70
2022-08-24T01:12:42.134Z,90.70
2022-08-24T01:15:22.751Z,90.90
2022-08-24T01:18:08.976Z,91.10
2022-08-24T01:20:36.673Z,91.10
2022-08-24T01:23:08.380Z,91.00
2022-08-24T01:25:39.047Z,91.10
2022-08-24T01:28:11.739Z,91.20
2022-08-24T01:30:38.735Z,91.30
2022-08-24T01:33:08.443Z,91.50
2022-08-24T01:35:37.407Z,91.50
2022-08-24T01:38:10.442Z,91.60
2022-08-24T01:40:43.830Z,91.70
2022-08-24T01:43:12.704Z,91.80
2022-08-24T01:45:40.119Z,91.90
2022-08-24T01:48:07.403Z,92.00
2022-08-24T01:50:34.939Z,92.30
2022-08-24T01:53:05.892Z,92.40
2022-08-24T01:55:33.639Z,92.30
2022-08-24T01:58:02.873Z,92.40
2022-08-24T02:00:30.712Z,92.50
2022-08-24T02:02:57.787Z,92.60
2022-08-24T02:05:25.704Z,92.70
2022-08-24T02:07:52.817Z,92.90
2022-08-24T02:10:21.677Z,93.10
2022-08-24T02:12:57.918Z,93.10
2022-08-24T02:15:32.959Z,93.10
2022-08-24T02:18:01.029Z,93.20
2022-08-24T02:20:28.711Z,93.10
2022-08-24T02:22:57.298Z,93.20
2022-08-24T02:25:26.076Z,93.20
2022-08-24T02:27:53.033Z,93.20
2022-08-24T02:30:20.176Z,93.20
2022-08-24T02:32:48.880Z,93.40
2022-08-24T02:35:17.293Z,93.40
2022-08-24T02:37:44.225Z,93.30
2022-08-24T02:40:13.937Z,93.30
2022-08-24T02:42:41.921Z,93.30
2022-08-24T02:45:10.125Z,93.20
2022-08-24T02:47:39.469Z,93.00
2022-08-24T02:50:12.816Z,93.10
2022-08-24T02:52:40.505Z,93.00
2022-08-24T02:55:10.064Z,93.00
2022-08-24T02:57:38.716Z,93.00
2022-08-24T03:00:10.485Z,93.00
2022-08-24T03:02:39.773Z,93.20
2022-08-24T03:05:10.163Z,93.30
2022-08-24T03:07:37.983Z,93.30
2022-08-24T03:10:07.209Z,93.20
2022-08-24T03:12:34.790Z,93.30
2022-08-24T03:15:03.323Z,93.30
2022-08-24T03:17:33.762Z,93.40
2022-08-24T03:20:01.537Z,93.40
2022-08-24T03:22:30.741Z,93.40
2022-08-24T03:24:57.796Z,93.50
2022-08-24T03:27:25.349Z,93.60
2022-08-24T03:29:52.609Z,93.60
2022-08-24T03:32:19.786Z,93.90
2022-08-24T03:34:46.876Z,94.30
2022-08-24T03:37:13.811Z,94.40
2022-08-24T03:39:42.324Z,94.60
2022-08-24T03:42:09.358Z,94.90
2022-08-24T03:44:36.930Z,95.10
2022-08-24T03:47:04.108Z,95.30
2022-08-24T03:49:31.554Z,95.50
2022-08-24T03:52:00.164Z,95.60
2022-08-24T03:54:27.322Z,95.50
2022-08-24T03:56:56.837Z,95.60
2022-08-24T03:59:25.359Z,95.50
2022-08-24T04:01:56.183Z,95.50
2022-08-24T04:04:24.068Z,95.50
2022-08-24T04:06:51.227Z,95.50
2022-08-24T04:09:19.403Z,95.50
2022-08-24T04:11:48.666Z,95.30
2022-08-24T04:14:26.970Z,95.40
2022-08-24T04:17:00.852Z,95.20
2022-08-24T04:19:34.936Z,95.20
2022-08-24T04:22:02.002Z,95.30
2022-08-24T04:24:30.146Z,95.40
2022-08-24T04:26:57.177Z,95.60
2022-08-24T04:29:27.390Z,95.70
2022-08-24T04:31:55.325Z,95.90
2022-08-24T04:34:23.171Z,96.00
2022-08-24T04:36:50.687Z,96.20
2022-08-24T04:39:18.180Z,96.30
2022-08-24T04:42:07.213Z,96.30
2022-08-24T04:44:40.322Z,96.60
2022-08-24T04:47:08.781Z,96.60
2022-08-24T04:49:38.203Z,96.60
2022-08-24T04:52:08.109Z,96.70
2022-08-24T04:54:35.252Z,96.70
2022-08-24T04:57:07.337Z,96.60
2022-08-24T04:59:34.277Z,96.60
2022-08-24T05:02:03.095Z,96.60
2022-08-24T05:04:30.046Z,96.80
2022-08-24T05:06:58.684Z,96.80
2022-08-24T05:09:25.599Z,97.00
2022-08-24T05:11:53.852Z,96.90
2022-08-24T05:14:28.632Z,96.80
2022-08-24T05:16:56.226Z,96.90
2022-08-24T05:19:24.741Z,97.00
2022-08-24T05:21:52.134Z,97.00
2022-08-24T05:24:19.651Z,97.10
2022-08-24T05:26:47.175Z,97.20
2022-08-24T05:29:15.135Z,97.30
2022-08-24T05:31:47.544Z,97.40
2022-08-24T05:34:15.143Z,97.40
2022-08-24T05:36:43.951Z,97.40
2022-08-24T05:39:31.082Z,97.30
2022-08-24T05:41:59.874Z,97.60
2022-08-24T05:44:31.502Z,97.60
2022-08-24T05:47:02.854Z,97.40
2022-08-24T05:49:31.082Z,97.40
2022-08-24T05:52:00.139Z,97.70
2022-08-24T05:54:27.179Z,97.70
2022-08-24T05:57:05.268Z,97.60
2022-08-24T05:59:48.337Z,97.40
2022-08-24T06:02:19.265Z,97.20
2022-08-24T06:04:46.420Z,97.10
2022-08-24T06:07:16.491Z,96.30
2022-08-24T06:09:48.931Z,96.20
2022-08-24T06:12:16.406Z,96.40
2022-08-24T06:14:47.465Z,96.20
2022-08-24T06:17:18.668Z,96.20
2022-08-24T06:19:45.875Z,96.10
2022-08-24T06:22:14.307Z,96.30
2022-08-24T06:25:11.137Z,96.20
2022-08-24T06:27:41.556Z,96.30
2022-08-24T06:30:10.417Z,96.60
2022-08-24T06:32:58.873Z,96.40
2022-08-24T06:35:43.557Z,96.20
2022-08-24T06:38:14.531Z,95.80
2022-08-24T06:40:42.868Z,95.80
2022-08-24T06:43:11.053Z,95.20
2022-08-24T06:45:45.603Z,95.10
2022-08-24T06:48:16.347Z,94.70
2022-08-24T06:50:45.048Z,94.70
2022-08-24T06:53:14.846Z,94.90
2022-08-24T06:55:47.076Z,95.10
2022-08-24T06:58:14.397Z,94.90
2022-08-24T07:00:41.836Z,94.90
2022-08-24T07:03:08.811Z,94.60
2022-08-24T07:05:39.701Z,94.30
2022-08-24T07:08:19.256Z,94.20
2022-08-24T07:10:48.052Z,94.40
2022-08-24T07:13:15.366Z,93.70
2022-08-24T07:15:42.586Z,93.50
2022-08-24T07:18:14.588Z,93.60
2022-08-24T07:20:46.013Z,93.70
2022-08-24T07:23:19.365Z,92.90
2022-08-24T07:25:52.161Z,92.70
2022-08-24T07:28:27.858Z,92.70
2022-08-24T07:30:58.958Z,92.30
2022-08-24T07:33:27.175Z,93.10
2022-08-24T07:35:55.116Z,92.70
2022-08-24T07:38:23.365Z,92.70
2022-08-24T07:43:42.971Z,93.30
2022-08-24T07:46:10.742Z,93.50
2022-08-24T07:48:37.843Z,93.10
2022-08-24T07:51:08.082Z,92.90
2022-08-24T07:53:52.670Z,92.80
2022-08-24T07:56:22.106Z,92.50
2022-08-24T07:58:49.923Z,92.60
2022-08-24T08:01:22.352Z,92.70
2022-08-24T08:03:50.407Z,92.20
2022-08-24T08:06:19.116Z,91.90
2022-08-24T08:08:48.255Z,91.30
2022-08-24T08:11:15.208Z,91.00
2022-08-24T08:16:16.022Z,90.80
2022-08-24T08:18:43.318Z,90.50
2022-08-24T08:21:32.742Z,88.50
2022-08-24T08:24:20.542Z,89.30
2022-08-24T08:26:57.638Z,90.00
2022-08-24T08:29:31.318Z,90.00
2022-08-24T08:31:58.398Z,87.80
2022-08-24T08:34:26.368Z,86.70
2022-08-24T08:36:56.399Z,87.20
2022-08-24T08:39:25.767Z,85.30
2022-08-24T08:42:29.677Z,83.60
2022-08-24T08:45:19.303Z,83.40
2022-08-24T08:48:17.251Z,81.20
2022-08-24T08:51:19.127Z,80.30
2022-08-24T08:54:12.335Z,80.50
2022-08-24T08:56:49.680Z,77.70
2022-08-24T08:59:28.628Z,78.80
2022-08-24T09:02:09.071Z,77.20
2022-08-24T09:04:56.309Z,74.60
2022-08-24T09:07:40.392Z,75.20
2022-08-24T09:10:35.549Z,73.60
2022-08-24T09:13:12.419Z,74.20
2022-08-24T09:15:59.102Z,71.50
2022-08-24T09:18:41.374Z,68.30
2022-08-24T09:21:25.895Z,66.60
2022-08-24T09:24:01.362Z,62.80
2022-08-24T09:26:31.088Z,59.00
2022-08-24T09:29:12.682Z,56.30
2022-08-24T09:31:51.937Z,55.10
2022-08-24T09:34:33.328Z,52.50
2022-08-24T09:37:16.464Z,53.10
2022-08-24T09:39:59.981Z,51.40
2022-08-24T09:43:19.898Z,50.60
2022-08-24T09:46:12.640Z,50.60
2022-08-24T09:49:13.610Z,51.20
2022-08-24T09:52:09.207Z,52.00
2022-08-24T09:54:59.583Z,52.50
2022-08-24T09:57:59.883Z,52.80
2022-08-24T10:00:34.979Z,53.30
2022-08-24T10:03:13.482Z,52.60
2022-08-24T10:06:10.957Z,52.90
2022-08-24T10:08:55.184Z,53.20
2022-08-24T10:11:30.472Z,54.00
2022-08-24T10:14:07.302Z,54.20
2022-08-24T10:16:44.489Z,53.40
2022-08-24T10:19:37.579Z,53.80
2022-08-24T10:22:16.422Z,52.30
2022-08-24T10:25:02.668Z,52.10
2022-08-24T10:28:00.766Z,53.30
2022-08-24T10:30:55.132Z,53.40
2022-08-24T10:33:25.211Z,53.70
2022-08-24T10:36:21.202Z,53.00
2022-08-24T10:39:09.070Z,52.90
2022-08-24T10:42:37.480Z,52.60
2022-08-24T10:45:42.581Z,52.70
2022-08-24T10:48:47.980Z,52.00
2022-08-24T10:51:29.410Z,52.30
2022-08-24T10:53:58.802Z,50.10
2022-08-24T10:56:37.783Z,50.10
2022-08-24T10:59:17.531Z,50.10
2022-08-24T11:04:39.498Z,49.80
2022-08-24T11:07:17.646Z,50.00
2022-08-24T11:09:48.848Z,50.00
2022-08-24T11:12:23.739Z,49.80
2022-08-24T11:14:52.460Z,49.50
2022-08-24T11:17:21.101Z,49.50
2022-08-24T11:19:50.451Z,49.30
2022-08-24T11:22:39.478Z,49.80
2022-08-24T11:25:13.483Z,50.30
2022-08-24T11:27:43.494Z,51.10
2022-08-24T11:30:15.139Z,51.40
2022-08-24T11:32:45.865Z,50.80
2022-08-24T11:35:22.253Z,50.10
2022-08-24T11:37:51.785Z,50.50
2022-08-24T11:40:20.378Z,51.80
2022-08-24T11:43:13.348Z,51.80
2022-08-24T11:45:45.635Z,51.10
2022-08-24T11:48:29.599Z,50.80
2022-08-24T11:51:01.887Z,51.20
2022-08-24T11:56:25.666Z,51.10
2022-08-24T11:58:57.877Z,51.50
2022-08-24T12:01:31.296Z,50.80
2022-08-24T12:04:19.889Z,50.70
2022-08-24T12:06:56.225Z,51.10
2022-08-24T12:09:39.494Z,49.50
2022-08-24T12:12:13.670Z,48.60
2022-08-24T12:14:46.581Z,49.30
2022-08-24T12:17:18.739Z,48.70
2022-08-24T12:19:48.967Z,48.50
2022-08-24T12:22:20.021Z,49.10
2022-08-24T12:24:50.088Z,47.60
2022-08-24T12:27:20.621Z,47.90
2022-08-24T12:29:53.386Z,49.10
2022-08-24T12:32:24.223Z,48.00
2022-08-24T12:34:58.506Z,47.60
2022-08-24T12:37:32.651Z,47.70
2022-08-24T12:40:08.740Z,48.10
2022-08-24T12:42:49.864Z,46.70
2022-08-24T12:45:20.779Z,46.50
2022-08-24T12:47:52.399Z,47.80
2022-08-24T12:50:26.509Z,46.80
2022-08-24T12:53:24.485Z,47.90
2022-08-24T12:56:20.594Z,46.00
2022-08-24T12:58:58.465Z,45.70
2022-08-24T13:01:29.486Z,47.00
2022-08-24T13:04:07.344Z,48.20
2022-08-24T13:06:45.627Z,46.80
2022-08-24T13:09:28.617Z,45.70
2022-08-24T13:11:56.842Z,46.40
2022-08-24T13:14:26.305Z,46.40
2022-08-24T13:17:10.170Z,46.30
2022-08-24T13:19:40.893Z,47.10
2022-08-24T13:22:47.123Z,46.10
2022-08-24T13:25:50.975Z,45.80
2022-08-24T13:28:42.980Z,45.90
2022-08-24T13:31:22.032Z,44.50
2022-08-24T13:33:52.914Z,45.50
2022-08-24T13:36:54.720Z,45.00
2022-08-24T13:39:57.184Z,46.30
2022-08-24T13:42:50.233Z,46.60
2022-08-24T13:45:26.075Z,46.20
2022-08-24T13:48:04.507Z,47.10
2022-08-24T13:50:38.858Z,47.60
2022-08-24T13:53:34.841Z,46.10
2022-08-24T13:56:37.356Z,46.20
2022-08-24T13:59:11.256Z,47.00
2022-08-24T14:01:54.891Z,46.30
2022-08-24T14:04:45.102Z,46.20
2022-08-24T14:07:18.632Z,46.50
2022-08-24T14:09:58.752Z,47.80
2022-08-24T14:12:54.055Z,47.90
2022-08-24T14:15:31.920Z,48.50
2022-08-24T14:18:12.488Z,48.40
2022-08-24T14:21:08.716Z,50.30
2022-08-24T14:23:52.265Z,50.10
2022-08-24T14:27:05.185Z,49.70
2022-08-24T14:29:35.323Z,50.80
2022-08-24T14:32:32.130Z,52.10
2022-08-24T14:35:23.041Z,53.20
2022-08-24T14:38:03.564Z,54.10
2022-08-24T14:40:35.000Z,54.20
2022-08-24T14:43:21.963Z,54.20
2022-08-24T14:45:55.950Z,54.30
2022-08-24T14:48:32.480Z,54.40
2022-08-24T14:51:10.584Z,54.50
2022-08-24T14:53:59.721Z,54.50
2022-08-24T14:56:48.017Z,54.30
2022-08-24T14:59:30.605Z,54.50
2022-08-24T15:02:19.900Z,54.70
2022-08-24T15:04:48.430Z,54.20
2022-08-24T15:07:26.482Z,55.40
2022-08-24T15:09:55.685Z,55.60
2022-08-24T15:12:35.933Z,56.20
2022-08-24T15:15:09.804Z,56.10
2022-08-24T15:17:49.130Z,55.60
2022-08-24T15:20:19.871Z,56.20
2022-08-24T15:22:55.311Z,56.90
2022-08-24T15:25:33.902Z,56.90
2022-08-24T15:28:09.741Z,56.70
2022-08-24T15:30:39.954Z,56.80
2022-08-24T15:33:11.515Z,56.60
2022-08-24T15:35:40.538Z,56.70
2022-08-24T15:38:22.305Z,56.80
2022-08-24T15:40:52.702Z,56.80
2022-08-24T15:43:19.904Z,57.40
2022-08-24T15:45:51.216Z,58.40
2022-08-24T15:48:23.984Z,58.30
2022-08-24T15:50:52.929Z,58.20
2022-08-24T15:53:35.167Z,59.10
2022-08-24T15:56:27.242Z,58.90
2022-08-24T15:58:54.509Z,59.00
2022-08-24T16:01:43.247Z,59.70
2022-08-24T16:04:35.556Z,60.40
2022-08-24T16:07:02.834Z,60.30
2022-08-24T16:09:38.161Z,60.20
2022-08-24T16:12:09.431Z,60.60
2022-08-24T16:14:39.420Z,60.80
2022-08-24T16:17:27.610Z,61.10
2022-08-24T16:19:57.547Z,61.90
2022-08-24T16:22:29.755Z,62.10
2022-08-24T16:25:17.499Z,62.40
2022-08-24T16:28:10.456Z,63.10
2022-08-24T16:30:47.969Z,63.30
2022-08-24T16:33:46.116Z,62.90
2022-08-24T16:36:15.730Z,63.90
2022-08-24T16:38:47.166Z,64.40
2022-08-24T16:41:18.000Z,64.20
2022-08-24T16:43:45.878Z,64.40
2022-08-24T16:46:18.181Z,64.80
2022-08-24T16:48:45.151Z,65.30
2022-08-24T16:51:12.034Z,65.90
2022-08-24T16:53:38.953Z,66.00
2022-08-24T16:56:08.736Z,65.90
2022-08-24T16:58:37.378Z,66.50
2022-08-24T17:01:05.458Z,67.00
2022-08-24T17:03:32.959Z,67.40
2022-08-24T17:06:00.381Z,67.80
2022-08-24T17:08:28.964Z,68.30
2022-08-24T17:10:56.499Z,68.30
2022-08-24T17:13:48.839Z,68.70
2022-08-24T17:16:15.510Z,69.00
2022-08-24T17:18:43.218Z,69.50
2022-08-24T17:21:10.277Z,69.70
2022-08-24T17:23:38.105Z,70.00
2022-08-24T17:26:10.549Z,70.10
2022-08-24T17:28:50.557Z,70.40
2022-08-24T17:31:19.808Z,70.70
2022-08-24T17:33:49.383Z,70.90
2022-08-24T17:36:18.468Z,71.20
2022-08-24T17:38:55.083Z,71.20
2022-08-24T17:41:23.766Z,71.50
2022-08-24T17:43:50.942Z,71.90
2022-08-24T17:46:20.064Z,72.30
2022-08-24T17:48:47.793Z,72.70
2022-08-24T17:51:15.190Z,72.90
2022-08-24T17:53:42.213Z,73.30
2022-08-24T17:56:12.707Z,73.80
2022-08-24T17:58:58.757Z,74.00
2022-08-24T18:01:27.959Z,74.50
2022-08-24T18:03:55.374Z,75.00
2022-08-24T18:06:24.499Z,75.40
2022-08-24T18:08:51.861Z,75.70
2022-08-24T18:11:21.601Z,76.20
2022-08-24T18:13:51.235Z,76.40
2022-08-24T18:16:22.097Z,76.90
2022-08-24T18:18:52.039Z,77.20
2022-08-24T18:21:20.192Z,77.50
2022-08-24T18:23:48.411Z,77.90
2022-08-24T18:26:20.735Z,78.10
2022-08-24T18:28:52.616Z,78.20
2022-08-24T18:31:22.503Z,78.70
2022-08-24T18:33:50.881Z,78.90
2022-08-24T18:36:17.820Z,79.10
2022-08-24T18:38:44.729Z,79.50
2022-08-24T18:41:12.219Z,79.60
2022-08-24T18:43:39.208Z,80.50
2022-08-24T18:46:07.044Z,79.80
2022-08-24T18:48:33.993Z,80.10
2022-08-24T18:51:02.557Z,80.30
2022-08-24T18:53:29.767Z,80.50
2022-08-24T18:55:56.810Z,80.80
2022-08-24T18:58:23.775Z,81.10
2022-08-24T19:00:51.594Z,81.60
2022-08-24T19:03:19.779Z,81.70
2022-08-24T19:05:47.308Z,82.30
2022-08-24T19:08:15.590Z,82.40
2022-08-24T19:10:42.566Z,82.70
2022-08-24T19:13:15.296Z,83.20
2022-08-24T19:15:42.779Z,83.20
2022-08-24T19:18:13.584Z,83.80
2022-08-24T19:20:47.740Z,84.60
2022-08-24T19:23:20.206Z,84.70
2022-08-24T19:25:48.072Z,84.70
2022-08-24T19:28:15.624Z,85.00
2022-08-24T19:30:44.536Z,84.80
2022-08-24T19:33:14.432Z,84.80
2022-08-24T19:35:41.887Z,84.70
2022-08-24T19:38:08.968Z,84.80
2022-08-24T19:40:39.189Z,84.90
2022-08-24T19:43:08.531Z,85.60
2022-08-24T19:45:54.325Z,85.70
2022-08-24T19:48:23.271Z,85.90
2022-08-24T19:50:51.244Z,86.30
2022-08-24T19:53:18.263Z,86.40
2022-08-24T19:55:50.081Z,86.70
2022-08-24T19:58:23.599Z,86.70
2022-08-24T20:00:56.627Z,87.10
2022-08-24T20:03:24.027Z,87.20
2022-08-24T20:05:51.301Z,87.40
2022-08-24T20:08:19.548Z,87.50
2022-08-24T20:10:48.406Z,88.10
2022-08-24T20:13:15.351Z,88.40
2022-08-24T20:15:43.012Z,88.00
2022-08-24T20:18:10.550Z,87.90
2022-08-24T20:20:37.545Z,87.90
2022-08-24T20:23:06.440Z,87.80
2022-08-24T20:25:35.086Z,87.70
2022-08-24T20:28:28.411Z,87.70
2022-08-24T20:30:52.444Z,87.80
2022-08-24T20:33:23.699Z,88.10
2022-08-24T20:35:50.734Z,88.30
2022-08-24T20:38:20.492Z,88.30
2022-08-24T20:40:48.514Z,88.60
2022-08-24T20:43:17.024Z,88.80
2022-08-24T20:45:44.399Z,89.00
2022-08-24T20:48:13.160Z,89.20
2022-08-24T20:50:43.766Z,89.40
2022-08-24T20:53:11.405Z,90.00
2022-08-24T20:55:38.991Z,90.20
2022-08-24T20:58:05.968Z,90.40
2022-08-24T21:00:34.514Z,90.40
2022-08-24T21:03:01.537Z,90.50
2022-08-24T21:05:28.599Z,90.70
2022-08-24T21:07:57.763Z,90.90
2022-08-24T21:10:26.639Z,91.00
2022-08-24T21:12:54.231Z,91.10
2022-08-24T21:15:23.126Z,91.10
2022-08-24T21:17:51.527Z,91.00
2022-08-24T21:20:19.226Z,91.10
2022-08-24T21:22:46.253Z,91.30
2022-08-24T21:25:14.658Z,91.30
2022-08-24T21:27:44.084Z,91.30
2022-08-24T21:30:14.300Z,91.50
2022-08-24T21:32:59.915Z,91.50
2022-08-24T21:35:28.252Z,91.80
2022-08-24T21:37:56.219Z,91.80
2022-08-24T21:40:23.633Z,91.90
2022-08-24T21:42:51.528Z,92.10
2022-08-24T21:45:19.089Z,92.20
2022-08-24T21:47:46.300Z,92.30
2022-08-24T21:50:14.807Z,92.40
2022-08-24T21:52:43.203Z,92.50
2022-08-24T21:55:14.781Z,92.60
2022-08-24T21:57:42.107Z,92.50
2022-08-24T22:00:13.279Z,92.50
2022-08-24T22:02:40.250Z,92.70
2022-08-24T22:05:07.998Z,92.80
2022-08-24T22:07:34.945Z,92.80
2022-08-24T22:10:04.116Z,93.00
2022-08-24T22:12:31.019Z,93.10
2022-08-24T22:14:57.967Z,93.40
2022-08-24T22:17:24.883Z,93.50
2022-08-24T22:19:51.847Z,93.50
2022-08-24T22:22:18.742Z,93.50
2022-08-24T22:24:45.647Z,93.50
2022-08-24T22:27:14.084Z,93.60
2022-08-24T22:29:41.055Z,93.60
2022-08-24T22:32:08.003Z,93.70
2022-08-24T22:34:36.501Z,93.80
2022-08-24T22:37:04.508Z,94.00
2022-08-24T22:39:31.675Z,94.20
2022-08-24T22:41:58.588Z,94.40
2022-08-24T22:44:27.762Z,94.60
2022-08-24T22:46:56.563Z,94.80
2022-08-24T22:49:26.014Z,95.00
2022-08-24T22:51:53.296Z,95.00
2022-08-24T22:54:21.387Z,95.10
2022-08-24T22:56:51.659Z,95.10
2022-08-24T22:59:21.777Z,95.20
2022-08-24T23:01:52.275Z,95.30
2022-08-24T23:04:23.538Z,95.00
2022-08-24T23:06:50.607Z,95.00
2022-08-24T23:09:18.064Z,95.10
2022-08-24T23:11:45.420Z,95.30
2022-08-24T23:14:13.423Z,95.30
2022-08-24T23:16:44.884Z,95.30
2022-08-24T23:19:32.126Z,95.20
2022-08-24T23:21:59.072Z,95.30
2022-08-24T23:24:26.018Z,95.50
2022-08-24T23:26:53.011Z,95.60
2022-08-24T23:29:21.239Z,95.60
2022-08-24T23:31:48.829Z,95.90
2022-08-24T23:34:17.210Z,96.10
2022-08-24T23:36:44.335Z,96.20
2022-08-24T23:39:11.986Z,96.30
2022-08-24T23:41:42.583Z,96.40
2022-08-24T23:44:12.550Z,96.60
2022-08-24T23:46:40.344Z,96.70
2022-08-24T23:49:08.024Z,96.70
2022-08-24T23:51:36.656Z,96.80
2022-08-24T23:54:04.581Z,96.80
2022-08-24T23:56:35.564Z,96.90
2022-08-24T23:59:06.422Z,96.90
